C.r. Mccaskill — WDG3808 — position and weather

sailwx.info

Track history (hours):
 
Tides and Currents Weather Stations Pressure Air Temp Water Temp Dewpoint Dewpoint Depression Visibility Wind Speed Wind Dir Waves Ship Positions

C.r. Mccaskill

Owner: Weeks Marine, Inc., Cranford, NJ. More information available from US FCC via Universal Licensing System and Coast Guard Vessel Documentation Center.

Last reported at 2017-Oct-18 17:18 UTC. Time now 2017-Oct-18 18:31 UTC.
Position N 36°50' W 076°16'.

Length 70 m.

Type: Dredging. MMSI: 367529860.

Date/timePositionNaut miles runAvg speedWind from/ knotsBaromVisibWave heightAir tempDewpointWater temp
2017-Oct-18 17:18N 36°50' W 076°16'1 0.0
2017-Oct-17 18:40N 36°51' W 076°17'3 0.2
2017-Oct-17 07:51N 36°48' W 076°17'0 0.0
2017-Oct-17 07:24N 36°48' W 076°17'0 0.0
2017-Oct-17 07:00N 36°48' W 076°17'0 0.0
2017-Oct-17 06:30N 36°48' W 076°17'0 0.0
2017-Oct-17 06:00N 36°48' W 076°17'0 0.0
2017-Oct-17 05:30N 36°48' W 076°17'0 0.0
2017-Oct-17 05:00N 36°48' W 076°17'0 0.0
2017-Oct-17 04:30N 36°48' W 076°17'0 0.0
2017-Oct-17 04:00N 36°48' W 076°17'0 0.0
2017-Oct-17 03:15N 36°48' W 076°17'0 0.0
2017-Oct-17 03:00N 36°48' W 076°17'0 0.0
2017-Oct-17 02:30N 36°48' W 076°17'0 0.0
2017-Oct-17 02:00N 36°48' W 076°17'0 0.0
2017-Oct-17 01:30N 36°48' W 076°17'0 0.0
2017-Oct-17 01:00N 36°48' W 076°17'0 0.0
2017-Oct-17 00:30N 36°48' W 076°17'0 0.0
2017-Oct-17 00:00N 36°48' W 076°17'0 0.0
2017-Oct-16 23:30N 36°48' W 076°17'0 0.0
2017-Oct-16 23:00N 36°48' W 076°17'0 0.0
2017-Oct-16 22:30N 36°48' W 076°17'0 0.0
2017-Oct-16 22:00N 36°48' W 076°17'0 0.0
2017-Oct-16 21:30N 36°48' W 076°17'0 0.0
2017-Oct-16 21:00N 36°48' W 076°17'0 0.2
2017-Oct-16 20:30N 36°48' W 076°17'2 4.2
2017-Oct-16 20:00N 36°50' W 076°18'3 5.7
2017-Oct-16 19:30N 36°52' W 076°20'3 6.3
2017-Oct-16 19:00N 36°55' W 076°20'9 2.8
2017-Oct-16 15:52N 36°59' W 076°10'1 3.4
2017-Oct-16 15:30N 36°59' W 076°09'2 3.3
2017-Oct-16 15:00N 36°58' W 076°07'3 3.2
2017-Oct-16 14:00N 36°57' W 076°03'2 3.7
2017-Oct-16 13:30N 36°56' W 076°01'2 3.7
2017-Oct-16 13:00N 36°56' W 075°59'2 4.3
2017-Oct-16 12:30N 36°54' W 075°57'3 4.8
2017-Oct-16 11:57N 36°52' W 075°55'48 5.8
2017-Oct-16 03:40N 36°06' W 075°38'8 5.5
2017-Oct-16 02:17N 35°59' W 075°35'2 5.7
2017-Oct-16 02:00N 35°57' W 075°34'  
2017-Oct-10 23:57N 36°46' W 075°54'2 5.0
2017-Oct-10 23:30N 36°48' W 075°54'3 4.9
2017-Oct-10 22:57N 36°50' W 075°56'2 5.1
2017-Oct-10 22:30N 36°53' W 075°57'3 5.4
2017-Oct-10 22:00N 36°55' W 075°58'3 5.6
2017-Oct-10 21:30N 36°57' W 076°01'3 5.1
2017-Oct-10 21:00N 36°57' W 076°04'13 4.0
2017-Oct-10 17:42N 36°58' W 076°20'1 4.7
2017-Oct-10 17:29N 36°57' W 076°20'3 4.0
2017-Oct-10 16:37N 36°53' W 076°20'0 3.7
2017-Oct-10 16:30N 36°53' W 076°20'2 3.8
2017-Oct-10 15:58N 36°51' W 076°18'1 3.1
2017-Oct-10 15:30N 36°50' W 076°18'2 0.8
2017-Oct-10 13:08N 36°48' W 076°17'0 0.0
2017-Oct-10 13:00N 36°48' W 076°17'0 0.0
2017-Oct-10 06:35N 36°48' W 076°17'0 0.0
2017-Oct-09 04:13N 36°48' W 076°17'0 0.0
2017-Oct-09 03:37N 36°48' W 076°17'0 0.0
2017-Oct-09 02:46N 36°48' W 076°17'0 0.0
2017-Oct-09 02:19N 36°48' W 076°17'0 0.0
2017-Oct-09 01:46N 36°48' W 076°17'0 0.0
2017-Oct-08 20:01N 36°48' W 076°17'0 0.0
2017-Oct-08 18:55N 36°48' W 076°17'0 0.0
2017-Oct-08 18:22N 36°48' W 076°17'0 0.0
2017-Oct-08 17:40N 36°48' W 076°17'0 0.0
2017-Oct-08 17:28N 36°48' W 076°17'  
Track history (hours):
 
Tides and Currents Weather Stations Pressure Air Temp Water Temp Dewpoint Dewpoint Depression Visibility Wind Speed Wind Dir Waves Ship Positions

C.r. Mccaskill

Owner: Weeks Marine, Inc., Cranford, NJ. More information available from US FCC via Universal Licensing System and Coast Guard Vessel Documentation Center.

Last reported at 2017-Oct-18 17:18 UTC. Time now 2017-Oct-18 18:31 UTC.
Position N 36°50' W 076°16'.

Length 70 m.

Type: Dredging. MMSI: 367529860.

Date/timePositionNaut miles runAvg speedWind from/ knotsBaromVisibWave heightAir tempDewpointWater temp
2017-Oct-18 17:18N 36°50' W 076°16'1 0.0
2017-Oct-17 18:40N 36°51' W 076°17'3 0.2
2017-Oct-17 07:51N 36°48' W 076°17'0 0.0
2017-Oct-17 07:24N 36°48' W 076°17'0 0.0
2017-Oct-17 07:00N 36°48' W 076°17'0 0.0
2017-Oct-17 06:30N 36°48' W 076°17'0 0.0
2017-Oct-17 06:00N 36°48' W 076°17'0 0.0
2017-Oct-17 05:30N 36°48' W 076°17'0 0.0
2017-Oct-17 05:00N 36°48' W 076°17'0 0.0
2017-Oct-17 04:30N 36°48' W 076°17'0 0.0
2017-Oct-17 04:00N 36°48' W 076°17'0 0.0
2017-Oct-17 03:15N 36°48' W 076°17'0 0.0
2017-Oct-17 03:00N 36°48' W 076°17'0 0.0
2017-Oct-17 02:30N 36°48' W 076°17'0 0.0
2017-Oct-17 02:00N 36°48' W 076°17'0 0.0
2017-Oct-17 01:30N 36°48' W 076°17'0 0.0
2017-Oct-17 01:00N 36°48' W 076°17'0 0.0
2017-Oct-17 00:30N 36°48' W 076°17'0 0.0
2017-Oct-17 00:00N 36°48' W 076°17'0 0.0
2017-Oct-16 23:30N 36°48' W 076°17'0 0.0
2017-Oct-16 23:00N 36°48' W 076°17'0 0.0
2017-Oct-16 22:30N 36°48' W 076°17'0 0.0
2017-Oct-16 22:00N 36°48' W 076°17'0 0.0
2017-Oct-16 21:30N 36°48' W 076°17'0 0.0
2017-Oct-16 21:00N 36°48' W 076°17'0 0.2
2017-Oct-16 20:30N 36°48' W 076°17'2 4.2
2017-Oct-16 20:00N 36°50' W 076°18'3 5.7
2017-Oct-16 19:30N 36°52' W 076°20'3 6.3
2017-Oct-16 19:00N 36°55' W 076°20'9 2.8
2017-Oct-16 15:52N 36°59' W 076°10'1 3.4
2017-Oct-16 15:30N 36°59' W 076°09'2 3.3
2017-Oct-16 15:00N 36°58' W 076°07'3 3.2
2017-Oct-16 14:00N 36°57' W 076°03'2 3.7
2017-Oct-16 13:30N 36°56' W 076°01'2 3.7
2017-Oct-16 13:00N 36°56' W 075°59'2 4.3
2017-Oct-16 12:30N 36°54' W 075°57'3 4.8
2017-Oct-16 11:57N 36°52' W 075°55'48 5.8
2017-Oct-16 03:40N 36°06' W 075°38'8 5.5
2017-Oct-16 02:17N 35°59' W 075°35'2 5.7
2017-Oct-16 02:00N 35°57' W 075°34'  
2017-Oct-10 23:57N 36°46' W 075°54'2 5.0
2017-Oct-10 23:30N 36°48' W 075°54'3 4.9
2017-Oct-10 22:57N 36°50' W 075°56'2 5.1
2017-Oct-10 22:30N 36°53' W 075°57'3 5.4
2017-Oct-10 22:00N 36°55' W 075°58'3 5.6
2017-Oct-10 21:30N 36°57' W 076°01'3 5.1
2017-Oct-10 21:00N 36°57' W 076°04'13 4.0
2017-Oct-10 17:42N 36°58' W 076°20'1 4.7
2017-Oct-10 17:29N 36°57' W 076°20'3 4.0
2017-Oct-10 16:37N 36°53' W 076°20'0 3.7
2017-Oct-10 16:30N 36°53' W 076°20'2 3.8
2017-Oct-10 15:58N 36°51' W 076°18'1 3.1
2017-Oct-10 15:30N 36°50' W 076°18'2 0.8
2017-Oct-10 13:08N 36°48' W 076°17'0 0.0
2017-Oct-10 13:00N 36°48' W 076°17'0 0.0
2017-Oct-10 06:35N 36°48' W 076°17'0 0.0
2017-Oct-09 04:13N 36°48' W 076°17'0 0.0
2017-Oct-09 03:37N 36°48' W 076°17'0 0.0
2017-Oct-09 02:46N 36°48' W 076°17'0 0.0
2017-Oct-09 02:19N 36°48' W 076°17'0 0.0
2017-Oct-09 01:46N 36°48' W 076°17'0 0.0
2017-Oct-08 20:01N 36°48' W 076°17'0 0.0
2017-Oct-08 18:55N 36°48' W 076°17'0 0.0
2017-Oct-08 18:22N 36°48' W 076°17'0 0.0
2017-Oct-08 17:40N 36°48' W 076°17'0 0.0
2017-Oct-08 17:28N 36°48' W 076°17'  

Dump ship's entire track history